Time;durP1;ratioP1;P1;durP2;ratioP2;P2;SDS_P1;SDS_P2;PMS_P1;PMS_P2;Temp;Humidity;BMP_temperature;BMP_pressure;BME280_temperature;BME280_humidity;BME280_pressure;Samples;Min_cycle;Max_cycle;Signal;HPM_P1;HPM_P2
2022/10/07 00:01:14;;;;;;;;;0.00;0.00;;;;;;;;4974886;28;45469;-95
2022/10/07 00:03:40;;;;;;;;;0.00;0.00;;;;;;;;4975453;28;45477;-94
2022/10/07 00:06:05;;;;;;;;;0.00;0.00;;;;;;;;4975048;28;45597;-95
2022/10/07 00:08:31;;;;;;;;;0.00;0.00;;;;;;;;4975248;28;47122;-95
2022/10/07 00:10:56;;;;;;;;;0.00;0.00;;;;;;;;4976984;28;45372;-94
2022/10/07 00:13:22;;;;;;;;;0.00;0.00;;;;;;;;4978426;28;45525;-95
2022/10/07 00:15:50;;;;;;;;;0.00;0.00;;;;;;;;4959643;28;45541;-94
2022/10/07 00:18:15;;;;;;;;;0.00;0.00;;;;;;;;4959650;28;47155;-94
2022/10/07 00:20:40;;;;;;;;;0.00;0.00;;;;;;;;4963535;28;45728;-93
2022/10/07 00:23:06;;;;;;;;;0.00;0.00;;;;;;;;4964986;28;45552;-95
2022/10/07 00:25:34;;;;;;;;;0.00;0.00;;;;;;;;4965077;28;45528;-95
2022/10/07 00:27:59;;;;;;;;;0.00;0.00;;;;;;;;4962625;28;47291;-94
2022/10/07 00:30:25;;;;;;;;;0.00;0.00;;;;;;;;4958872;28;45517;-95
2022/10/07 00:32:50;;;;;;;;;0.00;0.00;;;;;;;;4958757;28;45488;-95
2022/10/07 00:35:15;;;;;;;;;0.00;0.00;;;;;;;;4958485;28;45343;-94
2022/10/07 00:37:41;;;;;;;;;2.00;2.00;;;;;;;;4958108;28;47188;-95
2022/10/07 00:40:08;;;;;;;;;22.00;12.00;;;;;;;;4960471;28;45806;-95
2022/10/07 00:42:34;;;;;;;;;0.00;0.00;;;;;;;;4959366;28;45403;-94
2022/10/07 00:44:59;;;;;;;;;0.00;0.00;;;;;;;;4962114;28;45490;-94
2022/10/07 00:47:29;;;;;;;;;0.00;0.00;;;;;;;;4978213;28;48253;-94
2022/10/07 00:50:06;;;;;;;;;0.00;0.00;;;;;;;;4978332;28;45948;-94
2022/10/07 00:52:34;;;;;;;;;0.00;0.00;;;;;;;;4978385;28;45492;-94
2022/10/07 00:55:01;;;;;;;;;0.00;0.00;;;;;;;;4978248;28;45384;-95
2022/10/07 00:57:28;;;;;;;;;0.00;0.00;;;;;;;;4978228;28;48474;-94
2022/10/07 00:59:54;;;;;;;;;0.00;0.00;;;;;;;;4977775;28;46169;-95
2022/10/07 01:02:24;;;;;;;;;0.00;0.00;;;;;;;;4963694;28;45428;-95
2022/10/07 01:04:50;;;;;;;;;0.00;0.00;;;;;;;;4958067;28;45522;-96
2022/10/07 01:07:19;;;;;;;;;0.00;0.00;;;;;;;;4958071;28;47222;-95
2022/10/07 01:09:45;;;;;;;;;0.00;0.00;;;;;;;;4967117;28;45442;-95
2022/10/07 01:12:23;;;;;;;;;0.00;0.00;;;;;;;;4978248;28;45386;-94
2022/10/07 01:15:07;;;;;;;;;0.00;0.00;;;;;;;;4978006;28;45336;-95
2022/10/07 01:17:35;;;;;;;;;0.00;0.00;;;;;;;;4977597;28;48459;-95
2022/10/07 01:20:06;;;;;;;;;0.00;0.00;;;;;;;;4977618;28;45501;-95
2022/10/07 01:22:50;;;;;;;;;0.00;0.00;;;;;;;;4977118;28;45392;-95
2022/10/07 01:25:31;;;;;;;;;0.00;0.00;;;;;;;;4977580;28;45519;-95
2022/10/07 01:28:11;;;;;;;;;0.00;0.00;;;;;;;;4977685;28;48222;-93
2022/10/07 01:30:40;;;;;;;;;0.00;0.00;;;;;;;;4969918;28;45333;-95
2022/10/07 01:33:10;;;;;;;;;0.00;0.00;;;;;;;;4958087;28;45607;-93
2022/10/07 01:35:36;;;;;;;;;0.00;0.00;;;;;;;;4957473;28;45520;-94
2022/10/07 01:38:04;;;;;;;;;0.00;0.00;;;;;;;;4958253;28;47071;-94
2022/10/07 01:40:39;;;;;;;;;0.00;0.00;;;;;;;;4957868;28;45973;-94
2022/10/07 01:43:04;;;;;;;;;0.00;0.00;;;;;;;;4968585;28;45731;-96
2022/10/07 01:45:31;;;;;;;;;0.00;0.00;;;;;;;;4959032;28;45309;-96
2022/10/07 01:47:57;;;;;;;;;0.00;0.00;;;;;;;;4958793;28;48246;-95
2022/10/07 01:50:25;;;;;;;;;0.00;0.00;;;;;;;;4958815;28;45418;-95
2022/10/07 01:52:50;;;;;;;;;0.00;0.00;;;;;;;;4959411;28;45293;-95
2022/10/07 01:55:21;;;;;;;;;0.00;0.00;;;;;;;;4966056;28;45508;-96
2022/10/07 01:58:05;;;;;;;;;0.00;0.00;;;;;;;;4981370;28;47342;-95
2022/10/07 02:00:32;;;;;;;;;0.00;0.00;;;;;;;;4977820;28;46111;-96
2022/10/07 02:03:17;;;;;;;;;9.00;9.00;;;;;;;;4977047;28;45438;-96
2022/10/07 02:05:57;;;;;;;;;0.00;0.00;;;;;;;;4976779;28;45511;-96
2022/10/07 02:08:22;;;;;;;;;0.00;0.00;;;;;;;;4977139;28;47388;-95
2022/10/07 02:10:51;;;;;;;;;0.00;0.00;;;;;;;;4966544;28;45388;-96
2022/10/07 02:13:20;;;;;;;;;3.00;3.00;;;;;;;;4957932;28;45347;-96
2022/10/07 02:15:55;;;;;;;;;0.00;0.00;;;;;;;;4976949;28;45446;-96
2022/10/07 02:18:20;;;;;;;;;0.00;0.00;;;;;;;;4976854;28;47216;-96
2022/10/07 02:20:48;;;;;;;;;0.00;0.00;;;;;;;;4977100;28;45733;-96
2022/10/07 02:23:14;;;;;;;;;0.00;0.00;;;;;;;;4977297;28;45349;-96
2022/10/07 02:25:44;;;;;;;;;2.67;2.67;;;;;;;;4976706;28;45426;-95
2022/10/07 02:28:11;;;;;;;;;0.00;0.00;;;;;;;;4976408;28;47392;-96
2022/10/07 02:30:36;;;;;;;;;0.00;0.00;;;;;;;;4976380;28;45498;-96
2022/10/07 02:33:04;;;;;;;;;0.00;0.00;;;;;;;;4975294;28;45381;-96
2022/10/07 02:35:48;;;;;;;;;0.00;0.00;;;;;;;;4962732;28;45588;-96
2022/10/07 02:38:15;;;;;;;;;0.00;0.00;;;;;;;;4957079;28;47407;-95
2022/10/07 02:40:44;;;;;;;;;0.00;0.00;;;;;;;;4956930;28;45518;-95
2022/10/07 02:43:16;;;;;;;;;0.00;0.00;;;;;;;;4957296;28;45491;-96
2022/10/07 02:45:44;;;;;;;;;0.00;0.00;;;;;;;;4957108;28;45403;-96
2022/10/07 02:48:19;;;;;;;;;0.00;0.00;;;;;;;;4956910;28;47491;-95
2022/10/07 02:50:47;;;;;;;;;0.00;0.00;;;;;;;;4956367;28;46222;-96
2022/10/07 02:53:14;;;;;;;;;0.00;0.00;;;;;;;;4957140;28;45303;-96
2022/10/07 02:55:40;;;;;;;;;0.00;0.00;;;;;;;;4956966;28;45259;-96
2022/10/07 02:58:07;;;;;;;;;0.00;0.00;;;;;;;;4956800;28;47410;-95
2022/10/07 03:00:35;;;;;;;;;0.00;0.00;;;;;;;;4974814;28;45397;-95
2022/10/07 03:03:01;;;;;;;;;0.00;0.00;;;;;;;;4973433;28;45463;-96
2022/10/07 03:05:27;;;;;;;;;0.00;0.00;;;;;;;;4956609;28;45317;-96
2022/10/07 03:07:58;;;;;;;;;0.00;0.00;;;;;;;;4956496;28;47001;-95
2022/10/07 03:10:25;;;;;;;;;0.00;0.00;;;;;;;;4956962;28;45972;-96
2022/10/07 03:12:50;;;;;;;;;0.00;0.00;;;;;;;;4957291;28;45234;-95
2022/10/07 03:15:16;;;;;;;;;0.00;0.00;;;;;;;;4957270;28;45201;-95
2022/10/07 03:17:41;;;;;;;;;0.00;0.00;;;;;;;;4957058;28;47463;-96
2022/10/07 03:20:07;;;;;;;;;0.00;0.00;;;;;;;;4960231;28;45594;-96
2022/10/07 03:22:33;;;;;;;;;10.00;10.00;;;;;;;;4961581;28;45524;-94
2022/10/07 03:24:58;;;;;;;;;0.00;0.00;;;;;;;;4960760;28;45360;-95
2022/10/07 03:27:24;;;;;;;;;0.00;0.00;;;;;;;;4959620;28;47851;-93
2022/10/07 03:29:49;;;;;;;;;0.00;0.00;;;;;;;;4956990;28;45442;-95
2022/10/07 03:32:18;;;;;;;;;0.00;0.00;;;;;;;;4956411;28;45415;-95
2022/10/07 03:34:43;;;;;;;;;0.00;0.00;;;;;;;;4956683;28;45998;-96
2022/10/07 03:37:08;;;;;;;;;0.00;0.00;;;;;;;;4955945;28;46988;-96
2022/10/07 03:39:33;;;;;;;;;0.00;0.00;;;;;;;;4956348;28;45427;-96
2022/10/07 03:41:59;;;;;;;;;0.00;0.00;;;;;;;;4956618;28;45467;-95
2022/10/07 03:44:25;;;;;;;;;0.00;0.00;;;;;;;;4956750;28;45575;-96
2022/10/07 03:46:50;;;;;;;;;0.00;0.00;;;;;;;;4958988;28;48169;-95
2022/10/07 03:49:16;;;;;;;;;0.00;0.00;;;;;;;;4959740;28;45933;-96
2022/10/07 03:51:41;;;;;;;;;0.00;0.00;;;;;;;;4959235;28;45409;-94
2022/10/07 03:54:06;;;;;;;;;0.00;0.00;;;;;;;;4959796;28;45289;-96
2022/10/07 03:56:32;;;;;;;;;0.00;0.00;;;;;;;;4959084;28;46919;-95
2022/10/07 03:58:57;;;;;;;;;0.00;0.00;;;;;;;;4959136;28;45529;-95
2022/10/07 04:01:23;;;;;;;;;0.00;0.00;;;;;;;;4959230;28;45609;-95
2022/10/07 04:03:48;;;;;;;;;0.00;0.00;;;;;;;;4959503;28;45444;-95
2022/10/07 04:06:13;;;;;;;;;0.00;0.00;;;;;;;;4958851;28;48194;-96
2022/10/07 04:08:39;;;;;;;;;0.00;0.00;;;;;;;;4959430;28;45397;-95
2022/10/07 04:11:05;;;;;;;;;0.00;0.00;;;;;;;;4959079;28;45375;-95
2022/10/07 04:13:30;;;;;;;;;0.00;0.00;;;;;;;;4961041;28;45417;-95
2022/10/07 04:15:56;;;;;;;;;0.00;0.00;;;;;;;;4968403;28;47352;-96
2022/10/07 04:18:21;;;;;;;;;0.00;0.00;;;;;;;;4958963;28;46294;-95
2022/10/07 04:20:47;;;;;;;;;0.00;0.00;;;;;;;;4959020;28;46080;-95
2022/10/07 04:23:12;;;;;;;;;0.00;0.00;;;;;;;;4959277;28;45409;-95
2022/10/07 04:25:42;;;;;;;;;0.00;0.00;;;;;;;;4958797;28;48140;-95
2022/10/07 04:28:13;;;;;;;;;0.00;0.00;;;;;;;;4958808;28;45499;-95
2022/10/07 04:30:39;;;;;;;;;0.00;0.00;;;;;;;;4970638;28;45278;-95
2022/10/07 04:33:04;;;;;;;;;0.00;0.00;;;;;;;;4978983;28;45491;-95
2022/10/07 04:35:30;;;;;;;;;0.00;0.00;;;;;;;;4978405;28;48000;-96
2022/10/07 04:37:55;;;;;;;;;0.00;0.00;;;;;;;;4979194;28;45594;-95
2022/10/07 04:40:21;;;;;;;;;1.00;1.00;;;;;;;;4975205;28;45554;-94
2022/10/07 04:45:31;;;;;;;;;0.00;0.00;;;;;;;;4960439;28;45810;-94
2022/10/07 04:47:57;;;;;;;;;0.00;0.00;;;;;;;;4963108;28;45311;-94
2022/10/07 04:50:22;;;;;;;;;0.00;0.00;;;;;;;;4966090;28;45636;-94
2022/10/07 04:52:48;;;;;;;;;0.00;0.00;;;;;;;;4966677;28;45237;-95
2022/10/07 04:55:13;;;;;;;;;0.00;0.00;;;;;;;;4964873;28;47251;-95
2022/10/07 04:57:38;;;;;;;;;3.00;3.00;;;;;;;;4957869;28;45566;-95
2022/10/07 05:00:04;;;;;;;;;0.00;0.00;;;;;;;;4958911;28;45510;-95
2022/10/07 05:02:30;;;;;;;;;0.00;0.00;;;;;;;;4969801;28;45407;-95
2022/10/07 05:04:55;;;;;;;;;0.00;0.00;;;;;;;;4958096;28;47422;-95
2022/10/07 05:07:20;;;;;;;;;0.00;0.00;;;;;;;;4958459;28;45508;-95
2022/10/07 05:09:46;;;;;;;;;0.00;0.00;;;;;;;;4959104;28;45617;-94
2022/10/07 05:12:11;;;;;;;;;0.00;0.00;;;;;;;;4957850;28;45549;-96
2022/10/07 05:14:36;;;;;;;;;0.00;0.00;;;;;;;;4958514;28;48266;-95
2022/10/07 05:17:02;;;;;;;;;0.00;0.00;;;;;;;;4957955;28;45800;-95
2022/10/07 05:19:28;;;;;;;;;0.00;0.00;;;;;;;;4970893;28;45432;-94
2022/10/07 05:21:53;;;;;;;;;0.00;0.00;;;;;;;;4977479;28;45414;-96
2022/10/07 05:24:18;;;;;;;;;0.00;0.00;;;;;;;;4977551;28;48199;-95
2022/10/07 05:26:46;;;;;;;;;0.00;0.00;;;;;;;;4977186;28;45701;-95
2022/10/07 05:29:12;;;;;;;;;0.00;0.00;;;;;;;;4978030;28;45332;-95
2022/10/07 05:31:37;;;;;;;;;0.00;0.00;;;;;;;;4957539;28;45809;-95
2022/10/07 05:34:02;;;;;;;;;0.67;0.67;;;;;;;;4960399;28;47872;-94
2022/10/07 05:36:27;;;;;;;;;0.00;0.00;;;;;;;;4957894;28;45839;-94
2022/10/07 05:38:56;;;;;;;;;0.00;0.00;;;;;;;;4958451;28;45396;-95
2022/10/07 05:41:22;;;;;;;;;0.00;0.00;;;;;;;;4957920;28;45411;-96
2022/10/07 05:43:47;;;;;;;;;0.00;0.00;;;;;;;;4977668;28;48330;-95
2022/10/07 05:46:14;;;;;;;;;0.00;0.00;;;;;;;;4978694;28;45519;-94
2022/10/07 05:48:39;;;;;;;;;0.00;0.00;;;;;;;;4957944;28;45808;-94
2022/10/07 05:51:06;;;;;;;;;0.00;0.00;;;;;;;;4957828;28;45287;-94
2022/10/07 05:53:31;;;;;;;;;0.00;0.00;;;;;;;;4957599;28;47165;-94
2022/10/07 05:55:57;;;;;;;;;0.00;0.00;;;;;;;;4957469;28;45795;-94
2022/10/07 05:58:22;;;;;;;;;0.00;0.00;;;;;;;;4957864;28;45835;-94
2022/10/07 06:00:52;;;;;;;;;0.00;0.00;;;;;;;;4957816;28;45677;-94
2022/10/07 06:03:18;;;;;;;;;0.00;0.00;;;;;;;;4958139;28;47106;-95
2022/10/07 06:05:46;;;;;;;;;0.00;0.00;;;;;;;;4960393;28;45569;-94
2022/10/07 06:08:12;;;;;;;;;0.00;0.00;;;;;;;;4961661;28;45296;-95
2022/10/07 06:13:22;;;;;;;;;0.00;0.00;;;;;;;;4961870;28;45522;-94
2022/10/07 06:15:48;;;;;;;;;0.00;0.00;;;;;;;;4977937;28;45829;-94
2022/10/07 06:18:13;;;;;;;;;2.00;2.00;;;;;;;;4971296;28;45316;-94
2022/10/07 06:20:38;;;;;;;;;0.00;0.00;;;;;;;;4977964;28;45413;-94
2022/10/07 06:23:05;;;;;;;;;0.00;0.00;;;;;;;;4977098;28;48423;-96
2022/10/07 06:25:56;;;;;;;;;0.00;0.00;;;;;;;;4975519;28;44850;-93
2022/10/07 06:28:21;;;;;;;;;0.00;0.00;;;;;;;;4986472;28;44728;-95
2022/10/07 06:30:47;;;;;;;;;0.00;0.00;;;;;;;;4976352;28;45508;-92
2022/10/07 06:33:12;;;;;;;;;0.00;0.00;;;;;;;;4975767;28;47088;-92
2022/10/07 06:35:37;;;;;;;;;0.00;0.00;;;;;;;;4975035;28;45966;-92
2022/10/07 06:38:04;;;;;;;;;0.00;0.00;;;;;;;;4977549;28;45304;-96
2022/10/07 06:40:29;;;;;;;;;0.00;0.00;;;;;;;;4978946;28;45655;-93
2022/10/07 06:42:54;;;;;;;;;0.00;0.00;;;;;;;;4975553;28;48407;-92
2022/10/07 06:45:19;;;;;;;;;2.00;2.00;;;;;;;;4972358;28;45336;-92
2022/10/07 06:47:46;;;;;;;;;0.00;0.00;;;;;;;;4972303;28;45501;-92
2022/10/07 06:50:11;;;;;;;;;0.00;0.00;;;;;;;;4972096;28;45596;-93
2022/10/07 06:52:36;;;;;;;;;0.00;0.00;;;;;;;;4974314;28;46671;-92
2022/10/07 06:55:01;;;;;;;;;0.00;0.00;;;;;;;;4975123;28;45573;-92
2022/10/07 06:57:26;;;;;;;;;0.00;0.00;;;;;;;;4975351;28;45415;-93
2022/10/07 06:59:53;;;;;;;;;0.00;0.00;;;;;;;;4974971;28;45850;-93
2022/10/07 07:02:19;;;;;;;;;0.00;0.00;;;;;;;;4971287;28;48112;-92
2022/10/07 07:04:44;;;;;;;;;0.00;0.00;;;;;;;;4958913;28;45661;-92
2022/10/07 07:07:10;;;;;;;;;0.00;0.00;;;;;;;;4960620;28;45759;-92
2022/10/07 07:09:35;;;;;;;;;0.00;0.00;;;;;;;;4974210;28;45392;-92
2022/10/07 07:12:01;;;;;;;;;0.00;0.00;;;;;;;;4968200;28;47339;-92
2022/10/07 07:14:26;;;;;;;;;0.00;0.00;;;;;;;;4975166;28;45316;-91
2022/10/07 07:16:52;;;;;;;;;0.00;0.00;;;;;;;;4965410;28;45388;-93
2022/10/07 07:19:18;;;;;;;;;0.00;0.00;;;;;;;;4964833;28;45298;-92
2022/10/07 07:21:43;;;;;;;;;0.00;0.00;;;;;;;;4977197;28;47969;-91
2022/10/07 07:24:09;;;;;;;;;0.00;0.00;;;;;;;;4972088;28;45336;-91
2022/10/07 07:26:35;;;;;;;;;0.00;0.00;;;;;;;;4971003;28;45589;-91
2022/10/07 07:29:01;;;;;;;;;0.00;0.00;;;;;;;;4971843;28;45633;-91
2022/10/07 07:31:27;;;;;;;;;0.00;0.00;;;;;;;;4972259;28;46433;-89
2022/10/07 07:33:54;;;;;;;;;0.00;0.00;;;;;;;;4968921;28;45473;-92
2022/10/07 07:36:21;;;;;;;;;0.00;0.00;;;;;;;;4974689;28;45559;-92
2022/10/07 07:38:51;;;;;;;;;0.00;0.00;;;;;;;;4974476;28;45318;-95
2022/10/07 07:41:17;;;;;;;;;0.00;0.00;;;;;;;;4972818;28;45686;-92
2022/10/07 07:43:46;;;;;;;;;0.00;0.00;;;;;;;;4980817;28;45363;-92
2022/10/07 07:46:11;;;;;;;;;0.00;0.00;;;;;;;;4979420;28;45573;-91
2022/10/07 07:48:36;;;;;;;;;0.00;0.00;;;;;;;;4977200;28;45300;-95
2022/10/07 07:51:04;;;;;;;;;0.00;0.00;;;;;;;;4977804;28;48328;-94
2022/10/07 07:53:29;;;;;;;;;0.00;0.00;;;;;;;;4986494;28;45379;-92
2022/10/07 07:55:56;;;;;;;;;0.00;0.00;;;;;;;;4965432;28;45545;-88
2022/10/07 07:58:21;;;;;;;;;0.00;0.00;;;;;;;;4959251;28;45466;-86
2022/10/07 08:00:56;;;;;;;;;0.00;0.00;;;;;;;;4967290;28;46033;-87
2022/10/07 08:03:22;;;;;;;;;0.00;0.00;;;;;;;;4965963;28;45807;-87
2022/10/07 08:05:47;;;;;;;;;0.00;0.00;;;;;;;;4970011;28;45638;-88
2022/10/07 08:08:13;;;;;;;;;0.00;0.00;;;;;;;;4971468;28;46905;-87
2022/10/07 08:10:41;;;;;;;;;0.00;0.00;;;;;;;;4961551;28;45869;-88
2022/10/07 08:13:07;;;;;;;;;0.00;0.00;;;;;;;;4962893;28;45542;-87
2022/10/07 08:15:32;;;;;;;;;0.00;0.00;;;;;;;;4969801;28;45619;-87
2022/10/07 08:17:57;;;;;;;;;0.00;0.00;;;;;;;;4968491;28;45323;-88
2022/10/07 08:20:22;;;;;;;;;0.00;0.00;;;;;;;;4957338;28;45469;-88
2022/10/07 08:22:48;;;;;;;;;0.00;0.00;;;;;;;;4971316;28;45352;-87
2022/10/07 08:25:15;;;;;;;;;0.00;0.00;;;;;;;;4975429;28;45406;-87
2022/10/07 08:27:40;;;;;;;;;0.00;0.00;;;;;;;;4966694;28;45374;-87
2022/10/07 08:30:06;;;;;;;;;0.00;0.00;;;;;;;;4974443;28;46491;-87
2022/10/07 08:32:31;;;;;;;;;0.00;0.00;;;;;;;;4963094;28;45789;-87
2022/10/07 08:34:56;;;;;;;;;0.00;0.00;;;;;;;;4972062;28;45532;-86
2022/10/07 08:37:21;;;;;;;;;0.00;0.00;;;;;;;;4973572;28;46794;-88
2022/10/07 08:39:46;;;;;;;;;0.00;0.00;;;;;;;;4972427;28;47422;-88
2022/10/07 08:42:31;;;;;;;;;0.00;0.00;;;;;;;;4966409;28;45459;-87
2022/10/07 08:44:56;;;;;;;;;0.00;0.00;;;;;;;;4964733;28;45748;-87
2022/10/07 08:47:24;;;;;;;;;0.00;0.00;;;;;;;;4973717;28;45557;-86
2022/10/07 08:50:03;;;;;;;;;0.00;0.00;;;;;;;;4969285;28;46660;-86
2022/10/07 08:52:33;;;;;;;;;0.00;0.00;;;;;;;;4969277;28;45406;-87
2022/10/07 08:55:00;;;;;;;;;0.00;0.00;;;;;;;;4968722;28;45538;-86
2022/10/07 08:57:34;;;;;;;;;0.00;0.00;;;;;;;;4973118;28;45514;-87
2022/10/07 09:00:02;;;;;;;;;0.00;0.00;;;;;;;;4971997;28;46166;-86
2022/10/07 09:02:35;;;;;;;;;0.00;0.00;;;;;;;;4976041;28;45406;-86
2022/10/07 09:05:21;;;;;;;;;0.00;0.00;;;;;;;;4964792;28;45559;-87
2022/10/07 09:07:52;;;;;;;;;0.00;0.00;;;;;;;;4970214;28;45398;-88
2022/10/07 09:10:17;;;;;;;;;0.00;0.00;;;;;;;;4969817;28;47066;-87
2022/10/07 09:12:46;;;;;;;;;0.00;0.00;;;;;;;;4968474;28;45442;-87
2022/10/07 09:15:17;;;;;;;;;0.00;0.00;;;;;;;;4982117;28;45466;-87
2022/10/07 09:17:47;;;;;;;;;0.00;0.00;;;;;;;;4970885;28;45625;-89
2022/10/07 09:20:23;;;;;;;;;0.00;0.00;;;;;;;;4978712;28;47831;-91
2022/10/07 09:22:52;;;;;;;;;0.00;0.00;;;;;;;;4970151;28;45495;-88
2022/10/07 09:25:21;;;;;;;;;0.00;0.00;;;;;;;;4967549;28;46458;-88
2022/10/07 09:27:49;;;;;;;;;0.00;0.00;;;;;;;;4971380;28;45507;-89
2022/10/07 09:30:14;;;;;;;;;0.00;0.00;;;;;;;;4971955;28;46761;-88
2022/10/07 09:32:42;;;;;;;;;0.00;0.00;;;;;;;;4968851;28;45703;-88
2022/10/07 09:35:11;;;;;;;;;0.00;0.00;;;;;;;;4973626;28;46000;-88
2022/10/07 09:37:52;;;;;;;;;0.00;0.00;;;;;;;;4973515;28;45553;-87
2022/10/07 09:40:19;;;;;;;;;0.00;0.00;;;;;;;;4977524;28;45548;-86
2022/10/07 09:42:44;;;;;;;;;0.00;0.00;;;;;;;;4971185;28;45561;-87
2022/10/07 09:45:33;;;;;;;;;0.00;0.00;;;;;;;;4967693;28;45412;-87
2022/10/07 09:48:06;;;;;;;;;0.00;0.00;;;;;;;;4974529;28;45669;-88
2022/10/07 09:50:37;;;;;;;;;0.00;0.00;;;;;;;;4974779;28;48225;-88
2022/10/07 09:53:04;;;;;;;;;0.00;0.00;;;;;;;;4974674;28;45653;-86
2022/10/07 09:55:36;;;;;;;;;0.00;0.00;;;;;;;;4972268;28;46590;-87
2022/10/07 09:58:02;;;;;;;;;0.00;0.00;;;;;;;;4968622;28;45435;-86
2022/10/07 10:00:28;;;;;;;;;0.00;0.00;;;;;;;;4967009;28;45624;-87
2022/10/07 10:03:04;;;;;;;;;0.00;0.00;;;;;;;;4964414;28;45591;-86
2022/10/07 10:05:34;;;;;;;;;0.00;0.00;;;;;;;;4968445;28;45430;-87
2022/10/07 10:08:18;;;;;;;;;0.00;0.00;;;;;;;;4963268;28;45558;-85
2022/10/07 10:10:50;;;;;;;;;0.00;0.00;;;;;;;;4971333;28;46294;-88
2022/10/07 10:13:27;;;;;;;;;0.00;0.00;;;;;;;;4973829;28;45563;-86
2022/10/07 10:15:52;;;;;;;;;0.00;0.00;;;;;;;;4967477;28;45769;-87
2022/10/07 10:18:24;;;;;;;;;0.00;0.00;;;;;;;;4969347;28;45382;-87
2022/10/07 10:20:49;;;;;;;;;0.00;0.00;;;;;;;;4976016;28;47040;-90
2022/10/07 10:23:28;;;;;;;;;0.00;0.00;;;;;;;;4974274;28;46036;-87
2022/10/07 10:28:49;;;;;;;;;0.00;0.00;;;;;;;;4974435;28;45459;-90
2022/10/07 10:31:35;;;;;;;;;0.00;0.00;;;;;;;;4971660;28;46264;-92
2022/10/07 10:34:00;;;;;;;;;0.00;0.00;;;;;;;;4898335;28;45435;-89
2022/10/07 10:36:28;;;;;;;;;0.00;0.00;;;;;;;;4889939;28;45542;-88
2022/10/07 10:39:00;;;;;;;;;0.00;0.00;;;;;;;;4868853;28;45609;-91
2022/10/07 10:41:25;;;;;;;;;0.00;0.00;;;;;;;;4868050;29;47104;-96
2022/10/07 10:44:05;;;;;;;;;0.00;0.00;;;;;;;;4879626;28;46023;-89
2022/10/07 10:46:40;;;;;;;;;0.00;0.00;;;;;;;;4877142;29;45492;-86
2022/10/07 10:49:18;;;;;;;;;0.00;0.00;;;;;;;;4892928;28;45717;-86
2022/10/07 10:51:46;;;;;;;;;0.00;0.00;;;;;;;;4892530;28;46467;-87
2022/10/07 10:54:37;;;;;;;;;0.00;0.00;;;;;;;;4891945;28;45517;-87
2022/10/07 10:57:21;;;;;;;;;0.00;0.00;;;;;;;;4893666;28;45544;-88
2022/10/07 10:59:47;;;;;;;;;0.00;0.00;;;;;;;;4891132;28;45456;-89
2022/10/07 11:02:25;;;;;;;;;0.00;0.00;;;;;;;;4892290;28;48609;-89
2022/10/07 11:04:59;;;;;;;;;0.00;0.00;;;;;;;;4870935;29;45457;-89
2022/10/07 11:07:26;;;;;;;;;0.00;0.00;;;;;;;;4885738;28;45523;-90
2022/10/07 11:09:56;;;;;;;;;0.00;0.00;;;;;;;;4887000;28;45761;-88
2022/10/07 11:12:24;;;;;;;;;0.00;0.00;;;;;;;;4969405;28;46229;-89
2022/10/07 11:14:52;;;;;;;;;0.00;0.00;;;;;;;;4960896;28;45919;-89
2022/10/07 11:17:29;;;;;;;;;0.00;0.00;;;;;;;;4970256;28;45455;-89
2022/10/07 11:19:58;;;;;;;;;0.00;0.00;;;;;;;;4966783;28;45497;-89
2022/10/07 11:22:31;;;;;;;;;0.00;0.00;;;;;;;;4970482;28;47342;-89
2022/10/07 11:25:01;;;;;;;;;0.00;0.00;;;;;;;;4959858;28;45510;-91
2022/10/07 11:27:28;;;;;;;;;0.00;0.00;;;;;;;;4971908;28;45418;-91
2022/10/07 11:30:00;;;;;;;;;0.00;0.00;;;;;;;;4965410;28;45627;-90
2022/10/07 11:32:44;;;;;;;;;0.00;0.00;;;;;;;;4965073;28;48695;-91
2022/10/07 11:35:22;;;;;;;;;0.00;0.00;;;;;;;;4973824;28;45341;-90
2022/10/07 11:38:06;;;;;;;;;0.00;0.00;;;;;;;;4973912;28;45608;-89
2022/10/07 11:40:33;;;;;;;;;0.00;0.00;;;;;;;;4977086;28;45588;-91
2022/10/07 11:43:05;;;;;;;;;0.00;0.00;;;;;;;;4970213;28;46575;-91
2022/10/07 11:45:37;;;;;;;;;0.00;0.00;;;;;;;;4974025;28;45748;-94
2022/10/07 11:48:06;;;;;;;;;0.00;0.00;;;;;;;;4966479;28;45736;-94
2022/10/07 11:50:35;;;;;;;;;0.00;0.00;;;;;;;;4967136;28;45527;-93
2022/10/07 11:53:09;;;;;;;;;0.00;0.00;;;;;;;;4980731;28;45479;-93
2022/10/07 11:55:40;;;;;;;;;0.00;0.00;;;;;;;;4973371;28;45459;-95
2022/10/07 11:58:18;;;;;;;;;0.00;0.00;;;;;;;;4971884;28;45555;-93
2022/10/07 12:00:44;;;;;;;;;0.00;0.00;;;;;;;;4967920;28;45399;-92
2022/10/07 12:03:18;;;;;;;;;0.00;0.00;;;;;;;;4959299;28;47222;-91
2022/10/07 12:05:49;;;;;;;;;0.00;0.00;;;;;;;;4964328;28;45850;-91
2022/10/07 12:08:24;;;;;;;;;0.00;0.00;;;;;;;;4969430;28;45443;-91
2022/10/07 12:10:53;;;;;;;;;0.00;0.00;;;;;;;;4976161;28;46268;-92
2022/10/07 12:13:21;;;;;;;;;0.00;0.00;;;;;;;;4969091;28;48358;-91
2022/10/07 12:15:48;;;;;;;;;0.00;0.00;;;;;;;;4981872;28;45691;-91
2022/10/07 12:18:16;;;;;;;;;0.00;0.00;;;;;;;;4971879;28;45331;-91
2022/10/07 12:20:45;;;;;;;;;0.00;0.00;;;;;;;;4977136;28;45945;-91
2022/10/07 12:23:24;;;;;;;;;0.00;0.00;;;;;;;;4963295;28;47112;-90
2022/10/07 12:25:52;;;;;;;;;0.00;0.00;;;;;;;;4980258;28;45482;-91
2022/10/07 12:28:18;;;;;;;;;0.00;0.00;;;;;;;;4972889;28;45467;-90
2022/10/07 12:30:57;;;;;;;;;0.00;0.00;;;;;;;;4978068;28;45470;-91
2022/10/07 12:33:33;;;;;;;;;0.00;0.00;;;;;;;;4966512;28;48347;-90
2022/10/07 12:36:19;;;;;;;;;0.00;0.00;;;;;;;;4972640;28;45685;-91
2022/10/07 12:39:06;;;;;;;;;0.00;0.00;;;;;;;;4966563;28;45479;-91
2022/10/07 12:41:35;;;;;;;;;0.00;0.00;;;;;;;;4972522;28;45633;-93
2022/10/07 12:44:06;;;;;;;;;0.00;0.00;;;;;;;;4973443;28;47281;-93
2022/10/07 12:46:46;;;;;;;;;0.00;0.00;;;;;;;;4962786;28;45810;-92
2022/10/07 12:49:15;;;;;;;;;0.00;0.00;;;;;;;;4970773;28;45427;-93
2022/10/07 12:51:42;;;;;;;;;0.00;0.00;;;;;;;;4971615;28;45507;-92
2022/10/07 12:54:11;;;;;;;;;0.00;0.00;;;;;;;;4971124;28;47080;-92
2022/10/07 12:56:40;;;;;;;;;0.00;0.00;;;;;;;;4968633;28;45506;-91
2022/10/07 13:02:06;;;;;;;;;0.00;0.00;;;;;;;;4969277;28;45399;-91
2022/10/07 13:04:32;;;;;;;;;0.00;0.00;;;;;;;;4980136;28;45987;-91
2022/10/07 13:06:57;;;;;;;;;0.00;0.00;;;;;;;;4966440;28;45552;-90
2022/10/07 13:09:28;;;;;;;;;0.00;0.00;;;;;;;;4970133;28;46582;-91
2022/10/07 13:12:12;;;;;;;;;0.00;0.00;;;;;;;;4960895;28;45510;-92
2022/10/07 13:14:47;;;;;;;;;0.00;0.00;;;;;;;;4958209;28;47201;-91
2022/10/07 13:17:14;;;;;;;;;0.00;0.00;;;;;;;;4967356;28;45935;-90
2022/10/07 13:20:05;;;;;;;;;0.00;0.00;;;;;;;;4966456;28;45530;-91
2022/10/07 13:22:30;;;;;;;;;0.00;0.00;;;;;;;;4970181;28;45718;-91
2022/10/07 13:24:56;;;;;;;;;0.00;0.00;;;;;;;;4972243;28;46292;-91
2022/10/07 13:27:33;;;;;;;;;0.00;0.00;;;;;;;;4973214;28;45504;-91
2022/10/07 13:29:59;;;;;;;;;0.00;0.00;;;;;;;;4967647;28;45994;-91
2022/10/07 13:32:29;;;;;;;;;0.00;0.00;;;;;;;;4961073;28;45518;-91
2022/10/07 13:34:56;;;;;;;;;0.00;0.00;;;;;;;;4961237;28;48220;-91
2022/10/07 13:37:24;;;;;;;;;0.00;0.00;;;;;;;;4975667;28;45787;-91
2022/10/07 13:39:49;;;;;;;;;0.00;0.00;;;;;;;;4969388;28;45378;-91
2022/10/07 13:42:14;;;;;;;;;0.00;0.00;;;;;;;;4960229;28;45657;-91
2022/10/07 13:44:41;;;;;;;;;0.00;0.00;;;;;;;;4964008;28;45937;-91
2022/10/07 13:47:08;;;;;;;;;0.00;0.00;;;;;;;;4964970;28;46142;-92
2022/10/07 13:49:44;;;;;;;;;0.00;0.00;;;;;;;;4964433;28;45488;-92
2022/10/07 13:52:19;;;;;;;;;0.00;0.00;;;;;;;;4965406;28;45422;-91
2022/10/07 13:54:49;;;;;;;;;0.00;0.00;;;;;;;;4968507;28;47973;-92
2022/10/07 13:57:14;;;;;;;;;0.00;0.00;;;;;;;;4974657;28;45444;-93
2022/10/07 13:59:39;;;;;;;;;0.00;0.00;;;;;;;;4966877;28;45460;-92
2022/10/07 14:02:09;;;;;;;;;0.00;0.00;;;;;;;;4976964;28;45300;-92
2022/10/07 14:04:34;;;;;;;;;0.00;0.00;;;;;;;;4973849;28;47306;-91
2022/10/07 14:07:11;;;;;;;;;0.00;0.00;;;;;;;;4976642;28;45810;-93
2022/10/07 14:09:47;;;;;;;;;0.00;0.00;;;;;;;;4965607;28;45496;-91
2022/10/07 14:12:14;;;;;;;;;0.00;0.00;;;;;;;;4962365;28;45660;-93
2022/10/07 14:14:41;;;;;;;;;0.00;0.00;;;;;;;;4971207;28;47298;-91
2022/10/07 14:17:09;;;;;;;;;0.00;0.00;;;;;;;;4964732;28;45427;-92
2022/10/07 14:19:35;;;;;;;;;0.00;0.00;;;;;;;;4978534;28;45697;-91
2022/10/07 14:22:01;;;;;;;;;0.00;0.00;;;;;;;;4978908;28;45577;-91
2022/10/07 14:24:27;;;;;;;;;0.00;0.00;;;;;;;;4963749;28;46032;-92
2022/10/07 14:26:52;;;;;;;;;0.00;0.00;;;;;;;;4960944;28;45481;-90
2022/10/07 14:29:30;;;;;;;;;0.00;0.00;;;;;;;;4970466;28;45439;-91
2022/10/07 14:35:19;;;;;;;;;0.00;0.00;;;;;;;;4973479;28;45671;-91
2022/10/07 14:37:44;;;;;;;;;0.00;0.00;;;;;;;;4973872;28;45509;-89
2022/10/07 14:40:17;;;;;;;;;0.00;0.00;;;;;;;;4966494;28;45828;-89
2022/10/07 14:42:42;;;;;;;;;0.00;0.00;;;;;;;;4957371;28;45465;-91
2022/10/07 14:45:15;;;;;;;;;0.00;0.00;;;;;;;;4964199;28;47059;-91
2022/10/07 14:47:43;;;;;;;;;0.00;0.00;;;;;;;;4959709;28;45635;-90
2022/10/07 14:50:08;;;;;;;;;0.00;0.00;;;;;;;;4968689;28;45495;-90
2022/10/07 14:52:45;;;;;;;;;0.00;0.00;;;;;;;;4976587;28;45881;-90
2022/10/07 14:55:10;;;;;;;;;0.00;0.00;;;;;;;;4967756;28;48169;-90
2022/10/07 14:57:35;;;;;;;;;0.00;0.00;;;;;;;;4971585;28;45340;-90
2022/10/07 15:00:01;;;;;;;;;0.00;0.00;;;;;;;;4967643;28;45527;-88
2022/10/07 15:02:26;;;;;;;;;0.00;0.00;;;;;;;;4971002;28;45570;-90
2022/10/07 15:04:51;;;;;;;;;0.00;0.00;;;;;;;;4955092;28;46647;-90
2022/10/07 15:07:16;;;;;;;;;0.00;0.00;;;;;;;;4969707;28;45660;-90